Time;durP1;ratioP1;P1;durP2;ratioP2;P2;SDS_P1;SDS_P2;PMS_P1;PMS_P2;Temp;Humidity;BMP_temperature;BMP_pressure;BME280_temperature;BME280_humidity;BME280_pressure;Samples;Min_cycle;Max_cycle;Signal;HPM_P1;HPM_P2
2024/03/21 00:00:09;;;;;;;7.50;6.63;;;;;;;11.26;92.79;154250.44;5068582;28;20509;-90
2024/03/21 00:02:37;;;;;;;10.10;8.50;;;;;;;11.23;92.34;154242.66;5054453;28;20496;-91
2024/03/21 00:05:03;;;;;;;9.40;7.93;;;;;;;11.23;91.92;154242.66;5059036;28;20818;-90
2024/03/21 00:07:30;;;;;;;7.40;6.60;;;;;;;11.21;92.04;154237.47;5069343;28;20445;-90
2024/03/21 00:09:55;;;;;;;10.00;7.70;;;;;;;11.21;92.63;154237.47;5032599;28;20520;-90
2024/03/21 00:12:22;;;;;;;8.63;7.70;;;;;;;11.24;92.86;154245.25;5047016;28;20842;-91
2024/03/21 00:14:48;;;;;;;8.53;7.30;;;;;;;11.21;92.89;154238.78;5041906;28;20201;-90
2024/03/21 00:17:15;;;;;;;9.50;7.73;;;;;;;11.19;93.27;154233.63;5032353;28;20492;-90
2024/03/21 00:19:41;;;;;;;8.43;7.53;;;;;;;11.16;92.92;154225.84;5049376;28;20217;-90
2024/03/21 00:22:07;;;;;;;9.77;7.70;;;;;;;11.14;92.66;154219.38;5057661;28;20483;-90
2024/03/21 00:24:37;;;;;;;7.00;6.30;;;;;;;11.15;93.50;154223.22;5067881;28;20295;-91
2024/03/21 00:27:04;;;;;;;8.60;6.83;;;;;;;11.14;93.68;154219.38;5064607;28;20866;-91
2024/03/21 00:29:30;;;;;;;6.77;6.10;;;;;;;11.14;94.00;154219.38;5044847;28;20446;-90
2024/03/21 00:31:56;;;;;;;6.47;5.83;;;;;;;11.13;93.90;154216.75;5031491;28;20450;-90
2024/03/21 00:34:23;;;;;;;10.73;6.57;;;;;;;11.14;94.05;154219.38;5049163;28;20209;-90
2024/03/21 00:36:50;;;;;;;9.20;6.63;;;;;;;11.13;94.85;154216.75;5052861;28;20471;-90
2024/03/21 00:39:18;;;;;;;7.20;6.60;;;;;;;11.09;94.30;154206.41;5034365;28;20435;-91
2024/03/21 00:41:44;;;;;;;7.73;6.30;;;;;;;11.05;94.21;154196.03;5031757;28;20449;-90
2024/03/21 00:44:11;;;;;;;7.07;6.13;;;;;;;11.04;93.39;154194.72;5048370;28;20493;-91
2024/03/21 00:46:37;;;;;;;9.40;5.97;;;;;;;11.05;93.43;154196.03;5042602;28;20470;-90
2024/03/21 00:49:03;;;;;;;7.07;6.23;;;;;;;11.07;93.31;154201.25;5033588;28;20452;-91
2024/03/21 00:51:31;;;;;;;6.00;5.40;;;;;;;11.06;93.40;154198.63;5034115;28;20458;-90
2024/03/21 00:53:57;;;;;;;7.27;5.50;;;;;;;11.04;93.07;154193.47;5056991;28;20220;-90
2024/03/21 00:56:23;;;;;;;7.77;5.80;;;;;;;11.04;93.52;154193.47;5048826;28;20461;-90
2024/03/21 00:58:49;;;;;;;6.23;5.57;;;;;;;11.03;93.52;154192.16;5063030;28;20237;-90
2024/03/21 01:01:16;;;;;;;7.30;5.90;;;;;;;10.99;93.70;154183.09;5053688;28;20478;-89
2024/03/21 01:03:41;;;;;;;6.30;5.67;;;;;;;10.95;92.83;154171.44;5049922;28;20293;-89
2024/03/21 01:06:08;;;;;;;7.43;5.67;;;;;;;10.92;92.83;154164.97;5066655;28;20499;-89
2024/03/21 01:08:35;;;;;;;7.20;6.20;;;;;;;10.94;93.31;154170.13;5052570;28;20212;-89
2024/03/21 01:11:02;;;;;;;6.70;5.30;;;;;;;10.92;93.47;154164.97;5038349;28;20963;-90
2024/03/21 01:13:28;;;;;;;7.17;5.70;;;;;;;10.90;93.82;154158.50;5036725;28;20461;-90
2024/03/21 01:15:54;;;;;;;6.93;6.23;;;;;;;10.86;93.37;154148.09;5042161;28;20463;-90
2024/03/21 01:18:25;;;;;;;8.43;6.50;;;;;;;10.85;93.87;154146.84;5035582;28;20202;-89
2024/03/21 01:20:52;;;;;;;7.00;5.83;;;;;;;10.83;94.09;154141.63;5058782;28;20910;-89
2024/03/21 01:23:17;;;;;;;7.17;6.47;;;;;;;10.84;94.57;154144.25;5036775;28;20456;-90
2024/03/21 01:25:45;;;;;;;8.03;6.70;;;;;;;10.83;95.61;154141.63;5052857;28;20485;-89
2024/03/21 01:28:11;;;;;;;6.57;5.90;;;;;;;10.77;94.61;154126.13;5069551;28;20216;-89
2024/03/21 01:30:38;;;;;;;6.13;5.53;;;;;;;10.73;94.70;154115.75;5063544;28;20454;-90
2024/03/21 01:33:04;;;;;;;6.27;5.63;;;;;;;10.73;94.77;154115.75;5053769;28;20231;-89
2024/03/21 01:35:31;;;;;;;6.43;5.83;;;;;;;10.73;94.61;154114.44;5047433;28;20434;-89
2024/03/21 01:37:58;;;;;;;6.20;5.23;;;;;;;10.71;94.59;154110.56;5063547;28;20292;-89
2024/03/21 01:40:24;;;;;;;6.10;5.47;;;;;;;10.69;94.89;154105.41;5044669;28;20458;-89
2024/03/21 01:42:52;;;;;;;9.53;6.90;;;;;;;10.70;95.04;154107.97;5049709;28;21012;-89
2024/03/21 01:45:19;;;;;;;6.13;5.53;;;;;;;10.71;95.24;154110.56;5067883;28;20484;-89
2024/03/21 01:47:45;;;;;;;7.30;6.10;;;;;;;10.71;95.70;154110.56;5064929;28;20485;-89
2024/03/21 01:50:12;;;;;;;6.90;6.20;;;;;;;10.69;95.69;154105.41;5034101;28;20446;-89
2024/03/21 01:52:39;;;;;;;6.90;5.67;;;;;;;10.72;95.64;154111.88;5061074;28;20238;-89
2024/03/21 01:55:07;;;;;;;5.87;5.10;;;;;;;10.71;96.02;154110.56;5067506;28;20960;-89
2024/03/21 01:57:33;;;;;;;5.70;5.13;;;;;;;10.73;96.45;154114.44;5054990;28;20549;-89
2024/03/21 02:00:03;;;;;;;6.63;5.07;;;;;;;10.71;96.59;154110.56;5068970;28;20493;-89
2024/03/21 02:02:30;;;;;;;5.30;4.57;;;;;;;10.70;96.76;154106.66;5067332;28;20525;-89
2024/03/21 02:04:57;;;;;;;7.10;5.10;;;;;;;10.67;96.61;154100.19;5046628;28;20474;-88
2024/03/21 02:07:23;;;;;;;5.03;4.53;;;;;;;10.70;96.71;154106.66;5061457;28;20210;-89
2024/03/21 02:09:50;;;;;;;4.83;4.33;;;;;;;10.72;97.11;154113.13;5053729;28;20462;-89
2024/03/21 02:12:40;;;;;;;5.97;3.80;;;;;;;10.76;97.54;154123.53;5054653;28;20516;-89
2024/03/21 02:15:09;;;;;;;5.80;4.13;;;;;;;10.80;98.12;154133.84;5063531;28;20491;-89
2024/03/21 02:17:35;;;;;;;5.57;4.60;;;;;;;10.82;98.60;154137.78;5050586;28;20848;-89
2024/03/21 02:20:03;;;;;;;6.03;4.30;;;;;;;10.85;98.55;154146.84;5066324;28;20461;-89
2024/03/21 02:22:35;;;;;;;4.60;3.83;;;;;;;10.86;98.10;154148.09;5058414;28;20533;-89
2024/03/21 02:25:02;;;;;;;5.10;4.40;;;;;;;10.85;98.28;154145.53;5044401;28;20504;-88
2024/03/21 02:27:27;;;;;;;4.07;3.67;;;;;;;10.86;98.11;154149.41;5050938;28;20442;-89
2024/03/21 02:29:54;;;;;;;6.00;4.70;;;;;;;10.88;98.51;154154.56;5043823;28;20456;-88
2024/03/21 02:32:20;;;;;;;5.10;4.50;;;;;;;10.95;99.11;154171.44;5066492;28;20660;-89
2024/03/21 02:34:46;;;;;;;4.30;3.90;;;;;;;11.00;99.30;154185.69;5051592;28;20457;-89
2024/03/21 02:37:12;;;;;;;4.20;3.80;;;;;;;11.01;99.53;154188.25;5067416;28;20202;-89
2024/03/21 02:39:39;;;;;;;4.03;3.63;;;;;;;11.04;99.63;154194.72;5043927;28;20876;-89
2024/03/21 02:42:05;;;;;;;4.30;3.90;;;;;;;11.10;99.35;154208.97;5038662;28;20499;-89
2024/03/21 02:44:32;;;;;;;4.20;3.40;;;;;;;11.12;99.66;154214.19;5050272;28;20481;-90
2024/03/21 02:46:57;;;;;;;4.70;3.80;;;;;;;11.14;99.86;154220.66;5038641;28;20230;-89
2024/03/21 02:49:24;;;;;;;4.90;3.83;;;;;;;11.14;100.00;154219.38;5037397;28;20486;-89
2024/03/21 02:51:49;;;;;;;4.17;3.50;;;;;;;11.14;99.65;154219.38;5032350;28;20339;-89
2024/03/21 02:54:16;;;;;;;4.00;3.60;;;;;;;11.16;99.73;154225.84;5052247;28;20435;-90
2024/03/21 02:56:43;;;;;;;3.50;3.20;;;;;;;11.16;100.00;154224.53;5068814;28;20277;-90
2024/03/21 02:59:09;;;;;;;4.93;4.43;;;;;;;11.19;100.00;154232.31;5047347;28;20485;-90
2024/03/21 03:01:35;;;;;;;4.77;4.20;;;;;;;11.21;100.00;154237.47;5048256;28;20790;-90
2024/03/21 03:04:02;;;;;;;4.60;3.57;;;;;;;11.24;100.00;154246.56;5052477;28;20434;-89
2024/03/21 03:06:28;;;;;;;3.83;3.20;;;;;;;11.24;100.00;154246.56;5061752;28;20580;-90
2024/03/21 03:08:55;;;;;;;4.23;3.43;;;;;;;11.27;100.00;154253.03;5057090;28;20454;-89
2024/03/21 03:11:20;;;;;;;3.70;3.40;;;;;;;11.29;100.00;154258.22;5066127;28;20260;-90
2024/03/21 03:13:48;;;;;;;5.10;3.53;;;;;;;11.31;100.00;154264.69;5054857;28;20446;-89
2024/03/21 03:16:14;;;;;;;3.87;3.40;;;;;;;11.36;100.00;154277.63;5034342;28;20197;-89
2024/03/21 03:18:40;;;;;;;3.60;3.30;;;;;;;11.37;99.96;154280.25;5042620;28;20826;-90
2024/03/21 03:21:06;;;;;;;3.50;3.20;;;;;;;11.37;100.00;154280.25;5056222;28;20209;-90
2024/03/21 03:23:32;;;;;;;4.30;3.80;;;;;;;11.40;99.94;154286.72;5061091;28;20473;-89
2024/03/21 03:25:58;;;;;;;3.87;3.40;;;;;;;11.40;100.00;154286.72;5024942;28;20594;-89
2024/03/21 03:28:25;;;;;;;4.43;3.47;;;;;;;11.43;99.64;154295.81;5029810;28;20447;-89
2024/03/21 03:30:52;;;;;;;4.43;3.07;;;;;;;11.46;99.76;154303.53;5031999;28;20206;-89
2024/03/21 03:36:02;;;;;;;3.33;3.03;;;;;;;11.49;100.00;154310.06;5049162;28;20464;-89
2024/03/21 03:38:29;;;;;;;4.10;3.43;;;;;;;11.48;100.00;154307.47;5048978;28;20450;-89
2024/03/21 03:40:55;;;;;;;4.57;3.57;;;;;;;11.48;100.00;154307.47;5045537;28;20455;-89
2024/03/21 03:43:22;;;;;;;4.10;3.70;;;;;;;11.49;100.00;154310.06;5044468;28;20447;-89
2024/03/21 03:45:48;;;;;;;4.70;4.00;;;;;;;11.49;100.00;154310.06;5019410;28;20483;-90
2024/03/21 03:48:16;;;;;;;3.50;3.20;;;;;;;11.47;100.00;154304.84;5016912;28;20963;-89
2024/03/21 03:50:43;;;;;;;3.63;3.30;;;;;;;11.47;100.00;154306.16;5031575;28;20455;-90
2024/03/21 03:53:09;;;;;;;4.07;3.67;;;;;;;11.46;100.00;154303.53;5026498;28;20443;-90
2024/03/21 03:55:35;;;;;;;4.70;4.00;;;;;;;11.48;100.00;154307.47;5028907;28;20472;-89
2024/03/21 03:58:02;;;;;;;4.53;4.00;;;;;;;11.47;100.00;154304.84;5014512;28;20632;-90
2024/03/21 04:00:27;;;;;;;4.73;3.83;;;;;;;11.45;100.00;154299.69;5046422;28;20210;-90
2024/03/21 04:02:54;;;;;;;4.30;3.13;;;;;;;11.44;100.00;154298.38;5029322;28;20852;-90
2024/03/21 04:05:21;;;;;;;4.67;3.63;;;;;;;11.44;100.00;154297.06;5019945;28;20221;-90
2024/03/21 04:07:47;;;;;;;3.50;3.20;;;;;;;11.44;100.00;154297.06;5019092;28;20452;-89
2024/03/21 04:10:14;;;;;;;3.80;3.40;;;;;;;11.43;99.86;154294.50;5041720;28;20459;-90
2024/03/21 04:12:40;;;;;;;3.20;2.90;;;;;;;11.44;99.70;154297.06;5030633;28;20439;-90
2024/03/21 04:15:07;;;;;;;4.70;3.50;;;;;;;11.46;99.76;154302.28;5049301;28;20446;-89
2024/03/21 04:17:33;;;;;;;4.30;2.80;;;;;;;11.46;99.60;154302.28;5014856;28;20206;-89
2024/03/21 04:19:59;;;;;;;3.73;3.37;;;;;;;11.43;99.35;154294.50;5031388;28;20497;-90
2024/03/21 04:22:26;;;;;;;4.17;3.03;;;;;;;11.45;99.00;154299.69;5030443;28;20218;-89
2024/03/21 04:24:53;;;;;;;5.17;3.33;;;;;;;11.45;98.99;154299.69;5043985;28;20919;-90
2024/03/21 04:27:18;;;;;;;3.83;3.40;;;;;;;11.43;98.34;154295.81;5062887;28;20887;-88
2024/03/21 04:29:45;;;;;;;3.20;2.90;;;;;;;11.42;98.48;154291.91;5065163;28;20477;-88
2024/03/21 04:32:13;;;;;;;3.83;3.20;;;;;;;11.37;98.31;154278.94;5055977;28;20579;-89
2024/03/21 04:34:40;;;;;;;3.80;3.40;;;;;;;11.35;98.68;154273.78;5061156;28;20446;-89
2024/03/21 04:37:07;;;;;;;4.03;3.63;;;;;;;11.33;98.41;154269.84;5061172;28;20438;-89
2024/03/21 04:39:35;;;;;;;4.23;3.83;;;;;;;11.33;98.60;154268.59;5067702;28;20543;-89
2024/03/21 04:42:02;;;;;;;4.50;3.33;;;;;;;11.33;98.66;154268.59;5066530;28;20450;-89
2024/03/21 04:44:29;;;;;;;5.23;3.50;;;;;;;11.29;98.88;154259.53;5066720;28;20503;-89
2024/03/21 04:46:55;;;;;;;3.70;3.40;;;;;;;11.31;98.72;154264.69;5064111;28;20991;-89
2024/03/21 04:49:22;;;;;;;3.10;2.80;;;;;;;11.26;98.97;154251.75;5054471;28;20454;-89
2024/03/21 04:51:48;;;;;;;4.00;3.50;;;;;;;11.22;98.54;154241.41;5070974;28;20426;-90
2024/03/21 04:54:15;;;;;;;4.47;3.50;;;;;;;11.17;98.51;154227.16;5055667;28;20437;-88
2024/03/21 04:56:42;;;;;;;4.93;4.10;;;;;;;11.14;98.87;154219.38;5053429;28;20254;-89
2024/03/21 04:59:09;;;;;;;3.53;3.23;;;;;;;11.17;99.10;154227.16;5053032;28;20461;-89
2024/03/21 05:01:37;;;;;;;3.50;3.03;;;;;;;11.18;99.89;154229.72;5051410;28;20456;-88
2024/03/21 05:04:05;;;;;;;3.63;3.20;;;;;;;11.19;100.00;154232.31;5068840;28;20444;-89
2024/03/21 05:06:30;;;;;;;4.00;3.40;;;;;;;11.22;100.00;154241.41;5033535;28;20564;-89
2024/03/21 05:08:57;;;;;;;4.13;3.60;;;;;;;11.26;100.00;154250.44;5049557;28;20486;-88
2024/03/21 05:11:22;;;;;;;5.27;4.40;;;;;;;11.28;100.00;154255.66;5072672;28;20213;-89
2024/03/21 05:13:51;;;;;;;5.07;3.53;;;;;;;11.30;100.00;154260.81;5069807;28;20457;-89
2024/03/21 05:16:17;;;;;;;3.73;3.33;;;;;;;11.31;100.00;154263.38;5053574;28;20275;-88
2024/03/21 05:18:43;;;;;;;3.70;3.13;;;;;;;11.30;100.00;154260.81;5053017;28;20497;-89
2024/03/21 05:21:09;;;;;;;3.97;3.20;;;;;;;11.32;100.00;154266.00;5069721;28;20213;-88
2024/03/21 05:23:35;;;;;;;4.27;3.67;;;;;;;11.34;100.00;154272.47;5068815;28;20430;-89
2024/03/21 05:26:01;;;;;;;3.43;3.10;;;;;;;11.36;100.00;154276.34;5068906;28;20259;-89
2024/03/21 05:28:28;;;;;;;5.40;3.50;;;;;;;11.34;100.00;154271.16;5052711;28;20431;-88
2024/03/21 05:30:55;;;;;;;4.50;3.80;;;;;;;11.37;100.00;154280.25;5051495;28;20205;-88
2024/03/21 05:33:21;;;;;;;6.50;3.30;;;;;;;11.40;100.00;154286.72;5025107;28;20477;-88
2024/03/21 05:35:49;;;;;;;3.50;2.93;;;;;;;11.42;100.00;154293.19;5067018;28;21053;-89
2024/03/21 05:38:16;;;;;;;3.40;3.10;;;;;;;11.45;100.00;154299.69;5049678;28;20454;-89
2024/03/21 05:40:42;;;;;;;3.87;3.43;;;;;;;11.46;100.00;154302.28;5052963;28;20488;-89
2024/03/21 05:43:08;;;;;;;3.57;3.27;;;;;;;11.48;100.00;154308.75;5070502;28;20442;-88
2024/03/21 05:45:34;;;;;;;4.10;3.70;;;;;;;11.52;100.00;154317.81;5063038;28;20522;-89
2024/03/21 05:48:12;;;;;;;3.23;2.90;;;;;;;11.54;100.00;154323.03;5065290;28;20936;-89
2024/03/21 05:50:37;;;;;;;4.20;3.50;;;;;;;11.56;100.00;154329.50;5045781;28;20282;-88
2024/03/21 05:53:04;;;;;;;3.90;3.17;;;;;;;11.61;100.00;154341.16;5066659;28;20828;-89
2024/03/21 05:55:29;;;;;;;3.90;3.13;;;;;;;11.63;100.00;154346.31;5064364;28;20562;-89
2024/03/21 05:57:59;;;;;;;3.93;2.70;;;;;;;11.67;100.00;154355.41;5051152;28;20450;-89
2024/03/21 06:00:25;;;;;;;3.77;3.23;;;;;;;11.69;100.00;154361.94;5052073;28;20295;-89
2024/03/21 06:02:51;;;;;;;3.50;3.20;;;;;;;11.72;100.00;154369.72;5048974;28;20874;-88
2024/03/21 06:05:18;;;;;;;3.47;3.17;;;;;;;11.74;100.00;154374.88;5064992;28;20271;-89
2024/03/21 06:07:45;;;;;;;3.43;3.00;;;;;;;11.77;100.00;154382.66;5064483;28;20805;-88
2024/03/21 06:10:10;;;;;;;3.77;3.07;;;;;;;11.78;100.00;154385.22;5051388;28;20469;-89
2024/03/21 06:12:37;;;;;;;3.47;3.17;;;;;;;11.79;100.00;154387.84;5068113;28;20446;-89
2024/03/21 06:15:03;;;;;;;3.23;2.93;;;;;;;11.83;100.00;154396.94;5049873;28;20209;-88
2024/03/21 06:17:29;;;;;;;3.47;3.03;;;;;;;11.87;100.00;154407.28;5069232;28;20851;-88
2024/03/21 06:19:55;;;;;;;3.63;2.73;;;;;;;11.87;100.00;154408.56;5066782;28;20442;-88
2024/03/21 06:22:23;;;;;;;3.97;3.57;;;;;;;11.93;100.00;154424.16;5051565;28;20445;-89
2024/03/21 06:24:48;;;;;;;3.53;3.23;;;;;;;11.95;100.00;154429.31;5067285;28;20256;-89
2024/03/21 06:27:15;;;;;;;3.90;3.43;;;;;;;11.99;100.00;154438.41;5068813;28;20470;-89
2024/03/21 06:29:40;;;;;;;3.10;2.80;;;;;;;12.02;100.00;154447.44;5051904;28;20205;-90
2024/03/21 06:32:07;;;;;;;3.37;3.07;;;;;;;12.05;100.00;154455.25;5035457;28;20527;-89
2024/03/21 06:34:35;;;;;;;3.10;2.80;;;;;;;12.09;100.00;154465.63;5051007;28;20572;-88
2024/03/21 06:37:01;;;;;;;3.40;3.10;;;;;;;12.11;100.00;154470.81;5067464;28;20446;-89
2024/03/21 06:39:28;;;;;;;3.23;2.83;;;;;;;12.12;99.95;154473.41;5051715;28;20991;-89
2024/03/21 06:41:55;;;;;;;3.63;2.87;;;;;;;12.17;99.83;154486.38;5069893;28;20499;-88
2024/03/21 06:44:20;;;;;;;3.30;3.00;;;;;;;12.19;99.26;154491.56;5068507;28;20493;-89
2024/03/21 06:46:47;;;;;;;4.70;3.17;;;;;;;12.24;98.52;154503.19;5034079;28;20469;-89
2024/03/21 06:49:12;;;;;;;3.50;3.20;;;;;;;12.29;98.54;154514.84;5049233;28;20259;-89
2024/03/21 06:51:39;;;;;;;3.97;3.10;;;;;;;12.32;98.78;154523.94;5043942;28;20458;-89
2024/03/21 06:54:04;;;;;;;3.27;2.73;;;;;;;12.34;98.98;154527.88;5068340;28;20213;-89
2024/03/21 06:56:32;;;;;;;4.47;3.67;;;;;;;12.37;99.71;154535.59;5051306;28;21003;-90
2024/03/21 06:58:58;;;;;;;4.00;3.30;;;;;;;12.41;99.75;154547.31;5052175;28;20213;-88
2024/03/21 07:01:24;;;;;;;3.53;3.20;;;;;;;12.48;99.33;154564.16;5067599;28;20520;-90
2024/03/21 07:03:50;;;;;;;5.30;3.23;;;;;;;12.53;99.30;154577.09;5049774;28;20201;-90
2024/03/21 07:06:17;;;;;;;4.33;3.40;;;;;;;12.57;99.11;154587.50;5044564;28;20825;-90
2024/03/21 07:08:43;;;;;;;4.00;3.27;;;;;;;12.63;99.05;154603.03;5051986;28;20220;-90
2024/03/21 07:11:09;;;;;;;4.17;3.30;;;;;;;12.67;99.01;154613.44;5062481;28;20450;-90
2024/03/21 07:13:36;;;;;;;4.30;2.90;;;;;;;12.72;98.58;154626.41;5035467;28;20626;-90
2024/03/21 07:16:03;;;;;;;4.20;3.70;;;;;;;12.70;99.06;154621.22;5068905;28;20965;-89
2024/03/21 07:18:28;;;;;;;3.80;3.10;;;;;;;12.70;99.54;154621.22;5064525;28;20450;-90
2024/03/21 07:20:55;;;;;;;3.80;3.30;;;;;;;12.69;100.00;154618.63;5043589;28;20547;-89
2024/03/21 07:23:21;;;;;;;7.00;3.40;;;;;;;12.65;100.00;154609.56;5034763;28;20208;-89
2024/03/21 07:25:47;;;;;;;5.50;3.20;;;;;;;12.64;100.00;154606.94;5069403;28;20489;-89
2024/03/21 07:28:13;;;;;;;3.70;3.00;;;;;;;12.65;100.00;154608.25;5050711;28;20214;-90
2024/03/21 07:30:41;;;;;;;3.70;3.03;;;;;;;12.68;100.00;154617.31;5050939;28;20504;-90
2024/03/21 07:33:07;;;;;;;3.83;3.50;;;;;;;12.69;100.00;154619.91;5034120;28;20604;-91
2024/03/21 07:35:33;;;;;;;4.40;3.00;;;;;;;12.72;100.00;154626.41;5051015;28;20523;-91
2024/03/21 07:37:59;;;;;;;4.53;3.40;;;;;;;12.78;100.00;154641.97;5051210;28;20292;-91
2024/03/21 07:40:26;;;;;;;7.00;4.10;;;;;;;12.81;100.00;154649.75;5048423;28;20466;-91
2024/03/21 07:42:51;;;;;;;3.63;2.70;;;;;;;12.84;100.00;154658.81;5049786;28;20209;-92
2024/03/21 07:45:18;;;;;;;4.37;3.17;;;;;;;12.87;100.00;154665.28;5052304;28;20461;-91
2024/03/21 07:47:45;;;;;;;6.20;4.30;;;;;;;12.91;100.00;154674.41;5069398;28;20221;-92
2024/03/21 07:50:11;;;;;;;4.10;3.70;;;;;;;12.94;100.00;154682.19;5052781;28;20465;-91
2024/03/21 07:52:37;;;;;;;5.43;3.37;;;;;;;13.01;100.00;154701.63;5052598;28;20480;-91
2024/03/21 07:55:04;;;;;;;5.27;3.60;;;;;;;13.12;100.00;154730.22;5035579;28;20513;-92
2024/03/21 07:57:29;;;;;;;4.30;3.00;;;;;;;13.26;100.00;154765.28;5052193;28;20572;-91
2024/03/21 07:59:56;;;;;;;4.43;3.77;;;;;;;13.37;100.00;154795.09;5069830;28;20449;-91
2024/03/21 08:02:22;;;;;;;4.43;3.40;;;;;;;13.47;100.00;154818.47;5052106;28;20236;-91
2024/03/21 08:04:51;;;;;;;5.07;4.00;;;;;;;13.53;99.98;154835.31;5049291;28;20489;-92
2024/03/21 08:07:17;;;;;;;3.73;3.30;;;;;;;13.60;99.72;154852.22;5070267;28;20225;-92
2024/03/21 08:09:43;;;;;;;7.00;3.73;;;;;;;13.64;99.37;154862.56;5042553;28;20485;-91
2024/03/21 08:12:09;;;;;;;4.77;4.00;;;;;;;13.73;98.81;154885.94;5070711;28;20243;-92
2024/03/21 08:14:36;;;;;;;3.93;3.53;;;;;;;13.73;99.48;154887.25;5048537;28;20965;-92
2024/03/21 08:17:02;;;;;;;4.70;3.73;;;;;;;13.71;99.65;154882.06;5071326;28;20224;-92
2024/03/21 08:19:30;;;;;;;6.93;4.30;;;;;;;13.77;98.80;154896.31;5044210;28;20465;-91
2024/03/21 08:21:57;;;;;;;4.30;3.37;;;;;;;13.81;98.76;154906.72;5073663;28;20330;-91
2024/03/21 08:24:26;;;;;;;4.43;3.47;;;;;;;13.88;98.68;154924.88;5054006;28;20467;-92
2024/03/21 08:26:51;;;;;;;4.40;4.00;;;;;;;14.00;98.42;154956.06;5048492;28;20466;-92
2024/03/21 08:29:18;;;;;;;4.30;3.90;;;;;;;14.07;97.63;154974.22;5058112;28;20457;-92
2024/03/21 08:31:44;;;;;;;4.50;4.10;;;;;;;14.11;97.84;154984.59;5028987;28;20665;-92
2024/03/21 08:34:11;;;;;;;5.37;4.20;;;;;;;14.15;97.29;154993.69;5038090;28;20534;-92
2024/03/21 08:36:36;;;;;;;5.93;4.23;;;;;;;14.18;96.98;155002.78;5066605;28;20607;-91
2024/03/21 08:39:04;;;;;;;5.40;3.97;;;;;;;14.22;96.88;155013.16;5057188;28;20459;-92
2024/03/21 08:41:30;;;;;;;6.10;4.20;;;;;;;14.26;97.15;155022.25;5046640;28;20201;-92
2024/03/21 08:43:56;;;;;;;5.10;4.60;;;;;;;14.25;95.78;155020.94;5045721;28;20478;-92
2024/03/21 08:46:22;;;;;;;4.93;4.30;;;;;;;14.30;93.64;155033.94;5015877;28;20242;-92
2024/03/21 08:48:49;;;;;;;4.50;4.07;;;;;;;14.32;92.73;155039.16;5053234;28;20454;-91
2024/03/21 08:51:15;;;;;;;5.20;4.27;;;;;;;14.35;92.56;155046.97;5052566;28;20198;-92
2024/03/21 08:53:41;;;;;;;4.77;3.90;;;;;;;14.36;93.11;155048.28;5053294;28;20449;-92
2024/03/21 08:56:08;;;;;;;4.70;4.27;;;;;;;14.34;94.07;155044.41;5053983;28;20634;-91
2024/03/21 08:58:35;;;;;;;4.57;4.10;;;;;;;14.30;94.18;155033.94;5053768;28;20533;-92
2024/03/21 09:01:00;;;;;;;5.30;4.70;;;;;;;14.34;93.75;155044.41;5044324;28;20839;-91
2024/03/21 09:03:27;;;;;;;5.03;4.53;;;;;;;14.39;92.96;155057.38;5036037;28;20454;-91
2024/03/21 09:05:52;;;;;;;5.40;4.90;;;;;;;14.42;92.79;155065.19;5053439;28;20720;-92
2024/03/21 09:08:19;;;;;;;5.40;4.63;;;;;;;14.46;92.05;155075.53;5021574;28;20474;-92
2024/03/21 09:10:45;;;;;;;7.10;5.73;;;;;;;14.47;92.37;155076.84;5035533;28;20737;-92
2024/03/21 09:13:13;;;;;;;6.70;5.27;;;;;;;14.51;92.31;155088.53;5035222;28;20465;-92
2024/03/21 09:15:39;;;;;;;6.50;5.47;;;;;;;14.50;92.87;155085.97;5018456;28;20830;-92
2024/03/21 09:18:06;;;;;;;6.67;4.90;;;;;;;14.54;93.25;155096.31;5045921;28;20444;-92
2024/03/21 09:20:33;;;;;;;5.20;4.40;;;;;;;14.63;92.86;155118.41;5035072;28;20450;-92
2024/03/21 09:22:59;;;;;;;6.00;5.40;;;;;;;14.75;91.25;155148.25;5050843;28;20533;-92
2024/03/21 09:25:26;;;;;;;6.83;5.90;;;;;;;14.93;90.74;155196.34;5045893;28;20581;-92
2024/03/21 09:27:51;;;;;;;7.00;5.30;;;;;;;15.03;89.57;155221.03;5052652;28;20637;-92
2024/03/21 09:30:19;;;;;;;6.70;5.90;;;;;;;15.12;89.50;155244.41;5035022;28;20458;-92
2024/03/21 09:32:45;;;;;;;6.23;4.80;;;;;;;15.18;87.97;155260.00;5034858;28;20680;-93
2024/03/21 09:35:12;;;;;;;5.90;5.30;;;;;;;15.27;86.89;155283.44;5049183;28;20451;-93
2024/03/21 09:37:37;;;;;;;6.90;5.03;;;;;;;15.40;86.73;155317.22;5045925;28;20305;-92
2024/03/21 09:40:06;;;;;;;9.00;4.53;;;;;;;15.46;84.87;155332.81;5035265;28;21085;-92
2024/03/21 09:42:32;;;;;;;5.53;4.20;;;;;;;15.55;83.18;155354.94;5053277;28;20210;-92
2024/03/21 09:45:00;;;;;;;5.77;5.27;;;;;;;15.62;83.19;155374.41;5018407;28;20477;-92
2024/03/21 09:47:28;;;;;;;8.10;5.20;;;;;;;15.67;83.45;155387.41;5034880;28;20222;-92
2024/03/21 09:49:56;;;;;;;6.00;5.40;;;;;;;15.70;83.26;155393.97;5034483;28;20458;-92
2024/03/21 09:52:22;;;;;;;5.57;5.07;;;;;;;15.63;84.04;155375.72;5034823;28;20451;-92
2024/03/21 09:54:49;;;;;;;6.13;5.53;;;;;;;15.59;82.11;155366.66;5052848;28;20802;-92
2024/03/21 09:57:15;;;;;;;5.80;4.97;;;;;;;15.62;82.58;155374.41;5034514;28;20236;-92
2024/03/21 09:59:42;;;;;;;8.50;5.50;;;;;;;15.57;80.71;155361.44;5050995;28;20897;-92
2024/03/21 10:02:12;;;;;;;6.30;4.93;;;;;;;15.64;83.13;155379.66;5034730;28;20288;-92
2024/03/21 10:04:44;;;;;;;6.27;5.00;;;;;;;15.66;84.57;155384.84;5034143;28;20547;-92
2024/03/21 10:07:19;;;;;;;5.83;5.33;;;;;;;15.69;81.37;155392.66;5052413;28;20562;-93
2024/03/21 10:09:53;;;;;;;5.23;4.47;;;;;;;15.78;80.55;155414.72;5034439;28;20450;-93
2024/03/21 10:12:19;;;;;;;5.30;4.80;;;;;;;15.85;79.43;155432.94;5052360;28;20443;-92
2024/03/21 10:14:46;;;;;;;7.10;4.70;;;;;;;15.86;78.93;155434.25;5017691;28;20454;-92
2024/03/21 10:17:12;;;;;;;6.00;5.37;;;;;;;15.87;81.00;155438.13;5035197;28;20204;-92
2024/03/21 10:19:38;;;;;;;5.50;5.00;;;;;;;15.79;81.60;155417.34;5018469;28;20569;-92
2024/03/21 10:22:05;;;;;;;8.27;5.40;;;;;;;15.77;82.36;155413.47;5052365;28;20198;-92
2024/03/21 10:24:33;;;;;;;7.30;5.87;;;;;;;15.74;82.05;155405.66;5037506;28;20590;-92
2024/03/21 10:26:59;;;;;;;6.30;5.33;;;;;;;15.75;80.91;155408.22;5043491;28;20463;-92
2024/03/21 10:29:26;;;;;;;6.00;5.20;;;;;;;15.78;83.56;155416.03;5061455;28;20449;-92
2024/03/21 10:31:53;;;;;;;8.47;6.97;;;;;;;15.83;83.82;155429.03;5072127;28;20224;-93
2024/03/21 10:34:21;;;;;;;6.87;5.90;;;;;;;15.88;79.97;155439.44;5070510;28;20438;-93
2024/03/21 10:36:47;;;;;;;9.37;6.67;;;;;;;15.99;78.88;155468.06;5070665;28;20530;-93
2024/03/21 10:39:14;;;;;;;15.33;6.30;;;;;;;16.02;79.79;155475.88;5066485;28;20992;-92
2024/03/21 10:41:41;;;;;;;6.20;5.60;;;;;;;16.01;78.68;155474.56;5053153;28;20641;-93
2024/03/21 10:44:11;;;;;;;7.90;6.00;;;;;;;15.98;78.96;155465.44;5051890;28;20902;-93
2024/03/21 10:46:38;;;;;;;8.40;6.43;;;;;;;15.97;79.93;155462.81;5050185;28;20534;-93
2024/03/21 10:49:04;;;;;;;11.33;7.30;;;;;;;15.95;76.36;155458.94;5050156;28;20455;-93
2024/03/21 10:51:30;;;;;;;9.03;8.00;;;;;;;16.03;78.46;155479.75;5033938;28;20431;-92
2024/03/21 10:53:58;;;;;;;8.90;7.63;;;;;;;16.06;77.95;155486.25;5033546;28;20501;-92
2024/03/21 10:56:26;;;;;;;8.50;7.50;;;;;;;16.07;78.89;155488.88;5050216;28;20212;-92
2024/03/21 10:58:56;;;;;;;11.70;9.70;;;;;;;16.09;75.38;155494.06;5051620;28;20427;-93
2024/03/21 11:01:33;;;;;;;13.53;9.80;;;;;;;16.14;76.36;155507.06;5051539;28;20509;-93
2024/03/21 11:04:03;;;;;;;14.30;9.73;;;;;;;16.09;76.32;155495.38;5033778;28;20478;-92
2024/03/21 11:06:30;;;;;;;10.70;8.87;;;;;;;16.03;75.11;155478.44;5051102;28;20438;-93
2024/03/21 11:08:57;;;;;;;10.20;8.30;;;;;;;16.04;75.56;155481.06;5016743;28;20438;-92
2024/03/21 11:11:26;;;;;;;10.00;8.20;;;;;;;16.03;75.28;155478.44;5016809;28;20471;-93
2024/03/21 11:13:53;;;;;;;9.80;8.70;;;;;;;16.02;76.83;155475.88;5051258;28;20439;-93
2024/03/21 11:16:19;;;;;;;12.00;9.03;;;;;;;15.99;77.17;155469.31;5016540;28;20439;-92
2024/03/21 11:18:46;;;;;;;11.40;8.97;;;;;;;16.00;77.59;155470.63;5033132;28;20817;-93
2024/03/21 11:21:13;;;;;;;9.80;8.80;;;;;;;16.05;76.34;155484.94;5049571;28;20296;-92